sensor_id;sensor_type;location;lat;lon;timestamp;P1;durP1;ratioP1;P2;durP2;ratioP2
44272;SDS011;29964;17.182;-96.766;2023-04-15T04:49:11;1.90;;;1.60;;
44272;SDS011;29964;17.182;-96.766;2023-04-15T04:51:38;3.93;;;2.27;;
44272;SDS011;29964;17.182;-96.766;2023-04-15T04:54:05;2.40;;;1.93;;
44272;SDS011;29964;17.182;-96.766;2023-04-15T04:56:31;1.37;;;1.17;;
44272;SDS011;29964;17.182;-96.766;2023-04-15T04:58:59;2.90;;;1.47;;
44272;SDS011;29964;17.182;-96.766;2023-04-15T05:01:26;1.50;;;1.20;;
44272;SDS011;29964;17.182;-96.766;2023-04-15T05:03:52;1.43;;;1.10;;
44272;SDS011;29964;17.182;-96.766;2023-04-15T05:06:19;2.00;;;1.77;;
44272;SDS011;29964;17.182;-96.766;2023-04-15T05:08:46;4.07;;;2.20;;
44272;SDS011;29964;17.182;-96.766;2023-04-15T05:11:13;1.90;;;1.53;;
44272;SDS011;29964;17.182;-96.766;2023-04-15T05:13:40;2.23;;;1.60;;
44272;SDS011;29964;17.182;-96.766;2023-04-15T05:16:07;1.60;;;1.20;;
44272;SDS011;29964;17.182;-96.766;2023-04-15T05:18:33;2.30;;;1.70;;
44272;SDS011;29964;17.182;-96.766;2023-04-15T18:06:56;1.95;;;1.42;;
44272;SDS011;29964;17.182;-96.766;2023-04-15T18:09:23;2.60;;;1.45;;
44272;SDS011;29964;17.182;-96.766;2023-04-15T18:11:52;1.77;;;1.15;;
44272;SDS011;29964;17.182;-96.766;2023-04-15T18:14:19;2.92;;;1.83;;
44272;SDS011;29964;17.182;-96.766;2023-04-15T18:16:45;6.15;;;1.83;;
44272;SDS011;29964;17.182;-96.766;2023-04-15T18:19:13;5.20;;;1.75;;
44272;SDS011;29964;17.182;-96.766;2023-04-15T18:21:40;1.45;;;1.17;;
44272;SDS011;29964;17.182;-96.766;2023-04-15T18:24:07;1.63;;;1.17;;
44272;SDS011;29964;17.182;-96.766;2023-04-15T18:26:34;2.28;;;1.33;;
44272;SDS011;29964;17.182;-96.766;2023-04-15T18:29:01;1.65;;;1.13;;
44272;SDS011;29964;17.182;-96.766;2023-04-15T18:31:28;1.73;;;0.95;;
44272;SDS011;29964;17.182;-96.766;2023-04-15T18:49:12;3.28;;;1.80;;
44272;SDS011;29964;17.182;-96.766;2023-04-15T18:51:39;5.03;;;1.52;;
44272;SDS011;29964;17.182;-96.766;2023-04-15T18:54:06;3.55;;;1.70;;
44272;SDS011;29964;17.182;-96.766;2023-04-15T18:56:32;1.55;;;1.13;;
44272;SDS011;29964;17.182;-96.766;2023-04-15T18:58:59;14.57;;;1.90;;
44272;SDS011;29964;17.182;-96.766;2023-04-15T19:01:26;5.80;;;1.50;;
44272;SDS011;29964;17.182;-96.766;2023-04-15T19:03:52;2.40;;;1.30;;
44272;SDS011;29964;17.182;-96.766;2023-04-15T19:06:19;2.45;;;1.35;;
44272;SDS011;29964;17.182;-96.766;2023-04-15T19:08:46;3.63;;;1.90;;
44272;SDS011;29964;17.182;-96.766;2023-04-15T19:11:13;1.80;;;1.55;;
44272;SDS011;29964;17.182;-96.766;2023-04-15T19:13:40;2.65;;;1.50;;
44272;SDS011;29964;17.182;-96.766;2023-04-15T19:16:06;2.50;;;1.48;;
44272;SDS011;29964;17.182;-96.766;2023-04-15T19:18:33;2.00;;;1.27;;
44272;SDS011;29964;17.182;-96.766;2023-04-15T19:21:00;5.28;;;1.75;;
44272;SDS011;29964;17.182;-96.766;2023-04-15T19:23:27;2.15;;;1.50;;
44272;SDS011;29964;17.182;-96.766;2023-04-15T19:25:54;4.45;;;1.90;;
44272;SDS011;29964;17.182;-96.766;2023-04-15T19:28:22;2.97;;;2.03;;
44272;SDS011;29964;17.182;-96.766;2023-04-15T19:30:50;1.48;;;1.27;;
44272;SDS011;29964;17.182;-96.766;2023-04-15T19:33:17;2.08;;;1.42;;
44272;SDS011;29964;17.182;-96.766;2023-04-15T19:35:44;3.90;;;2.00;;
44272;SDS011;29964;17.182;-96.766;2023-04-15T19:38:14;4.75;;;1.80;;
44272;SDS011;29964;17.182;-96.766;2023-04-15T19:40:41;2.90;;;1.65;;
44272;SDS011;29964;17.182;-96.766;2023-04-15T19:43:07;1.88;;;1.27;;
44272;SDS011;29964;17.182;-96.766;2023-04-15T20:00:52;15.13;;;1.58;;
44272;SDS011;29964;17.182;-96.766;2023-04-15T20:03:21;7.40;;;2.08;;
44272;SDS011;29964;17.182;-96.766;2023-04-15T20:05:48;2.67;;;1.55;;
44272;SDS011;29964;17.182;-96.766;2023-04-15T20:08:15;1.75;;;1.00;;
44272;SDS011;29964;17.182;-96.766;2023-04-15T20:10:41;5.32;;;1.45;;
44272;SDS011;29964;17.182;-96.766;2023-04-15T20:13:08;2.15;;;1.33;;
44272;SDS011;29964;17.182;-96.766;2023-04-15T20:15:35;1.67;;;1.30;;
44272;SDS011;29964;17.182;-96.766;2023-04-15T20:18:02;2.10;;;1.23;;
44272;SDS011;29964;17.182;-96.766;2023-04-15T20:20:28;2.15;;;1.30;;
44272;SDS011;29964;17.182;-96.766;2023-04-15T20:22:55;1.92;;;1.17;;
44272;SDS011;29964;17.182;-96.766;2023-04-15T20:25:25;6.93;;;1.95;;
44272;SDS011;29964;17.182;-96.766;2023-04-15T20:27:51;1.63;;;1.17;;
44272;SDS011;29964;17.182;-96.766;2023-04-15T20:30:18;4.28;;;1.92;;
44272;SDS011;29964;17.182;-96.766;2023-04-15T20:32:45;3.75;;;2.05;;
44272;SDS011;29964;17.182;-96.766;2023-04-15T20:35:12;3.28;;;1.85;;
44272;SDS011;29964;17.182;-96.766;2023-04-15T20:37:38;3.22;;;1.83;;
44272;SDS011;29964;17.182;-96.766;2023-04-15T20:40:05;7.18;;;1.77;;
44272;SDS011;29964;17.182;-96.766;2023-04-15T20:42:32;2.92;;;1.25;;
44272;SDS011;29964;17.182;-96.766;2023-04-15T20:44:59;2.72;;;1.45;;
44272;SDS011;29964;17.182;-96.766;2023-04-15T20:47:26;3.63;;;1.77;;
44272;SDS011;29964;17.182;-96.766;2023-04-15T20:49:55;3.80;;;2.08;;
44272;SDS011;29964;17.182;-96.766;2023-04-15T20:52:22;3.45;;;1.60;;
44272;SDS011;29964;17.182;-96.766;2023-04-15T20:54:49;2.55;;;1.70;;
44272;SDS011;29964;17.182;-96.766;2023-04-15T20:57:16;5.07;;;1.50;;
44272;SDS011;29964;17.182;-96.766;2023-04-15T20:59:42;2.03;;;1.48;;
44272;SDS011;29964;17.182;-96.766;2023-04-15T21:02:09;2.22;;;1.35;;
44272;SDS011;29964;17.182;-96.766;2023-04-15T21:04:36;1.48;;;1.17;;
44272;SDS011;29964;17.182;-96.766;2023-04-15T21:07:03;4.95;;;1.92;;
44272;SDS011;29964;17.182;-96.766;2023-04-15T21:09:29;2.92;;;2.03;;
44272;SDS011;29964;17.182;-96.766;2023-04-15T21:11:56;2.42;;;1.65;;
44272;SDS011;29964;17.182;-96.766;2023-04-15T21:14:23;1.92;;;1.30;;
44272;SDS011;29964;17.182;-96.766;2023-04-15T21:16:49;2.38;;;1.30;;
44272;SDS011;29964;17.182;-96.766;2023-04-15T21:19:16;4.40;;;1.92;;
44272;SDS011;29964;17.182;-96.766;2023-04-15T21:21:43;2.05;;;1.33;;
44272;SDS011;29964;17.182;-96.766;2023-04-15T21:24:09;3.60;;;1.88;;
44272;SDS011;29964;17.182;-96.766;2023-04-15T21:26:36;1.80;;;1.23;;
44272;SDS011;29964;17.182;-96.766;2023-04-15T21:29:03;1.95;;;1.20;;
44272;SDS011;29964;17.182;-96.766;2023-04-15T21:31:30;3.03;;;1.73;;
44272;SDS011;29964;17.182;-96.766;2023-04-15T21:33:56;2.55;;;1.20;;
44272;SDS011;29964;17.182;-96.766;2023-04-15T21:36:23;2.08;;;1.40;;
44272;SDS011;29964;17.182;-96.766;2023-04-15T21:38:51;1.65;;;1.10;;
44272;SDS011;29964;17.182;-96.766;2023-04-15T21:41:17;1.58;;;1.17;;
44272;SDS011;29964;17.182;-96.766;2023-04-15T21:43:44;1.80;;;1.23;;
44272;SDS011;29964;17.182;-96.766;2023-04-15T21:46:11;2.10;;;1.42;;
44272;SDS011;29964;17.182;-96.766;2023-04-15T21:48:38;1.65;;;1.23;;
44272;SDS011;29964;17.182;-96.766;2023-04-15T21:51:04;1.88;;;1.27;;
44272;SDS011;29964;17.182;-96.766;2023-04-15T21:53:31;5.40;;;1.60;;
44272;SDS011;29964;17.182;-96.766;2023-04-15T21:55:58;1.92;;;1.33;;
44272;SDS011;29964;17.182;-96.766;2023-04-15T21:58:24;2.30;;;1.15;;
44272;SDS011;29964;17.182;-96.766;2023-04-15T22:00:51;1.77;;;1.35;;
44272;SDS011;29964;17.182;-96.766;2023-04-15T22:03:23;4.00;;;1.65;;
44272;SDS011;29964;17.182;-96.766;2023-04-15T22:05:50;2.05;;;1.45;;
44272;SDS011;29964;17.182;-96.766;2023-04-15T22:08:16;3.65;;;1.50;;
44272;SDS011;29964;17.182;-96.766;2023-04-15T22:10:43;2.35;;;1.60;;
44272;SDS011;29964;17.182;-96.766;2023-04-15T22:13:10;3.05;;;1.38;;
44272;SDS011;29964;17.182;-96.766;2023-04-15T22:15:37;7.40;;;1.88;;
44272;SDS011;29964;17.182;-96.766;2023-04-15T22:18:04;10.52;;;1.38;;
44272;SDS011;29964;17.182;-96.766;2023-04-15T22:20:31;1.33;;;0.93;;
44272;SDS011;29964;17.182;-96.766;2023-04-15T22:22:58;20.02;;;1.83;;
44272;SDS011;29964;17.182;-96.766;2023-04-15T22:25:24;2.40;;;1.42;;
44272;SDS011;29964;17.182;-96.766;2023-04-15T22:27:51;3.15;;;1.23;;
44272;SDS011;29964;17.182;-96.766;2023-04-15T22:30:18;1.42;;;1.10;;
44272;SDS011;29964;17.182;-96.766;2023-04-15T22:32:44;2.35;;;1.17;;
44272;SDS011;29964;17.182;-96.766;2023-04-15T22:35:11;4.07;;;1.25;;
44272;SDS011;29964;17.182;-96.766;2023-04-15T22:37:38;1.00;;;0.73;;
44272;SDS011;29964;17.182;-96.766;2023-04-15T22:40:05;2.38;;;1.10;;
44272;SDS011;29964;17.182;-96.766;2023-04-15T22:42:32;3.05;;;1.95;;
44272;SDS011;29964;17.182;-96.766;2023-04-15T22:44:58;2.25;;;1.27;;
44272;SDS011;29964;17.182;-96.766;2023-04-15T22:47:25;8.88;;;1.38;;
44272;SDS011;29964;17.182;-96.766;2023-04-15T22:49:52;1.63;;;1.20;;
44272;SDS011;29964;17.182;-96.766;2023-04-15T22:52:21;7.60;;;1.50;;
44272;SDS011;29964;17.182;-96.766;2023-04-15T22:54:48;2.03;;;1.27;;
44272;SDS011;29964;17.182;-96.766;2023-04-15T22:57:15;2.13;;;1.30;;
44272;SDS011;29964;17.182;-96.766;2023-04-15T22:59:42;1.88;;;1.30;;
44272;SDS011;29964;17.182;-96.766;2023-04-15T23:02:08;2.25;;;1.23;;
44272;SDS011;29964;17.182;-96.766;2023-04-15T23:04:35;1.85;;;1.20;;
44272;SDS011;29964;17.182;-96.766;2023-04-15T23:07:02;2.42;;;1.48;;
44272;SDS011;29964;17.182;-96.766;2023-04-15T23:09:28;6.22;;;2.28;;
44272;SDS011;29964;17.182;-96.766;2023-04-15T23:11:55;8.93;;;2.08;;
44272;SDS011;29964;17.182;-96.766;2023-04-15T23:14:22;3.13;;;2.10;;
44272;SDS011;29964;17.182;-96.766;2023-04-15T23:16:50;4.03;;;2.22;;
44272;SDS011;29964;17.182;-96.766;2023-04-15T23:19:17;9.98;;;2.05;;
44272;SDS011;29964;17.182;-96.766;2023-04-15T23:21:43;4.05;;;2.22;;
44272;SDS011;29964;17.182;-96.766;2023-04-15T23:24:11;11.77;;;3.20;;
44272;SDS011;29964;17.182;-96.766;2023-04-15T23:26:37;4.32;;;2.30;;
44272;SDS011;29964;17.182;-96.766;2023-04-15T23:29:05;2.10;;;1.67;;
44272;SDS011;29964;17.182;-96.766;2023-04-15T23:31:33;7.15;;;2.33;;
44272;SDS011;29964;17.182;-96.766;2023-04-15T23:34:00;2.53;;;1.95;;
44272;SDS011;29964;17.182;-96.766;2023-04-15T23:36:26;5.35;;;3.80;;
44272;SDS011;29964;17.182;-96.766;2023-04-15T23:38:53;8.05;;;4.72;;
44272;SDS011;29964;17.182;-96.766;2023-04-15T23:41:20;10.05;;;4.68;;
44272;SDS011;29964;17.182;-96.766;2023-04-15T23:43:47;7.93;;;4.90;;
44272;SDS011;29964;17.182;-96.766;2023-04-15T23:46:14;9.80;;;5.20;;
44272;SDS011;29964;17.182;-96.766;2023-04-15T23:48:41;7.10;;;4.28;;
44272;SDS011;29964;17.182;-96.766;2023-04-15T23:51:07;7.45;;;4.40;;
44272;SDS011;29964;17.182;-96.766;2023-04-15T23:53:34;12.18;;;3.55;;
44272;SDS011;29964;17.182;-96.766;2023-04-15T23:56:01;4.38;;;2.72;;
44272;SDS011;29964;17.182;-96.766;2023-04-15T23:58:27;4.20;;;3.00;;
